createdAt,value
2022-12-16T00:07:21.375Z,48.80
2022-12-16T00:14:56.769Z,56.70
2022-12-16T00:22:30.813Z,46.60
2022-12-16T00:30:07.128Z,51.08
2022-12-16T00:37:41.277Z,49.10
2022-12-16T00:45:16.685Z,57.55
2022-12-16T00:52:50.491Z,54.35
2022-12-16T01:00:26.347Z,49.40
2022-12-16T01:08:00.102Z,48.05
2022-12-16T01:15:35.273Z,48.72
2022-12-16T01:23:09.516Z,45.17
2022-12-16T01:30:44.991Z,47.92
2022-12-16T01:38:19.020Z,50.33
2022-12-16T01:45:58.179Z,49.10
2022-12-16T01:53:32.974Z,49.50
2022-12-16T02:01:09.171Z,50.28
2022-12-16T02:08:43.433Z,46.17
2022-12-16T02:16:26.036Z,53.75
2022-12-16T02:24:29.274Z,39.97
2022-12-16T02:32:11.618Z,50.60
2022-12-16T02:39:52.690Z,46.90
2022-12-16T02:47:29.496Z,45.97
2022-12-16T02:55:07.798Z,43.17
2022-12-16T03:02:54.303Z,45.40
2022-12-16T03:10:33.776Z,46.70
2022-12-16T03:18:11.481Z,41.13
2022-12-16T03:25:49.190Z,40.63
2022-12-16T03:33:31.021Z,43.65
2022-12-16T03:41:08.669Z,39.70
2022-12-16T03:48:50.031Z,36.38
2022-12-16T03:56:23.730Z,46.50
2022-12-16T04:03:59.034Z,46.45
2022-12-16T04:11:50.443Z,37.80
2022-12-16T04:19:46.305Z,44.67
2022-12-16T04:27:25.916Z,45.22
2022-12-16T04:35:15.155Z,43.72
2022-12-16T04:43:06.921Z,41.90
2022-12-16T04:50:59.379Z,41.90
2022-12-16T04:58:50.717Z,42.22
2022-12-16T05:06:43.590Z,39.88
2022-12-16T05:14:34.875Z,47.28
2022-12-16T05:22:27.368Z,35.67
2022-12-16T05:30:33.368Z,42.47
2022-12-16T05:38:26.448Z,36.50
2022-12-16T05:46:17.987Z,42.30
2022-12-16T05:54:10.554Z,38.75
2022-12-16T06:02:02.258Z,39.87
2022-12-16T06:09:56.902Z,44.40
2022-12-16T06:17:48.402Z,38.65
2022-12-16T06:25:37.598Z,35.25
2022-12-16T06:33:29.136Z,42.65
2022-12-16T06:41:22.420Z,39.20
2022-12-16T06:49:14.292Z,45.30
2022-12-16T06:57:06.875Z,39.60
2022-12-16T07:04:58.382Z,44.50
2022-12-16T07:12:51.137Z,43.05
2022-12-16T07:20:42.346Z,51.88
2022-12-16T07:28:35.200Z,44.90
2022-12-16T07:36:27.042Z,46.28
2022-12-16T07:44:19.952Z,40.92
2022-12-16T07:52:12.797Z,45.45
2022-12-16T08:00:05.244Z,44.55
2022-12-16T08:07:58.481Z,37.50
2022-12-16T08:23:42.328Z,47.20
2022-12-16T08:31:35.445Z,49.88
2022-12-16T08:39:26.670Z,40.50
2022-12-16T08:47:19.324Z,43.17
2022-12-16T08:55:11.801Z,39.97
2022-12-16T09:03:04.559Z,42.80
2022-12-16T09:10:56.110Z,44.20
2022-12-16T09:18:49.105Z,52.00
2022-12-16T09:26:40.708Z,54.50
2022-12-16T09:34:33.208Z,56.53
2022-12-16T09:42:31.587Z,54.90
2022-12-16T09:50:37.954Z,57.75
2022-12-16T09:58:31.556Z,70.28
2022-12-16T10:06:33.665Z,66.38
2022-12-16T10:14:32.706Z,66.88
2022-12-16T10:22:34.460Z,56.78
2022-12-16T10:30:31.749Z,54.83
2022-12-16T10:38:33.100Z,57.67
2022-12-16T10:46:31.043Z,63.35
2022-12-16T10:54:50.687Z,59.28
2022-12-16T11:02:45.569Z,64.43
2022-12-16T11:10:50.749Z,65.15
2022-12-16T11:18:42.972Z,68.18
2022-12-16T11:26:37.919Z,66.47
2022-12-16T11:34:30.009Z,61.30
2022-12-16T11:42:24.976Z,59.45
2022-12-16T11:50:17.420Z,63.70
2022-12-16T11:58:21.584Z,63.42
2022-12-16T12:06:25.596Z,58.57
2022-12-16T12:14:28.814Z,60.30
2022-12-16T12:22:23.662Z,64.18
2022-12-16T12:30:22.629Z,61.63
2022-12-16T12:38:21.352Z,62.08
2022-12-16T12:46:23.476Z,54.95
2022-12-16T12:54:26.635Z,61.80
2022-12-16T13:02:29.429Z,62.60
2022-12-16T13:10:33.601Z,60.53
2022-12-16T13:18:42.366Z,58.57
2022-12-16T13:26:35.633Z,53.35
2022-12-16T13:34:42.562Z,52.95
2022-12-16T13:42:51.931Z,55.40
2022-12-16T13:50:58.213Z,47.13
2022-12-16T13:58:55.359Z,55.03
2022-12-16T14:06:50.005Z,52.75
2022-12-16T14:14:46.397Z,60.63
2022-12-16T14:22:59.115Z,66.05
2022-12-16T14:30:51.329Z,61.17
2022-12-16T14:38:46.171Z,54.72
2022-12-16T14:46:45.880Z,62.00
2022-12-16T14:54:42.454Z,58.45
2022-12-16T15:02:45.112Z,52.22
2022-12-16T15:10:42.729Z,59.33
2022-12-16T15:18:39.445Z,55.65
2022-12-16T15:26:38.362Z,55.55
2022-12-16T15:34:40.679Z,51.90
2022-12-16T15:42:43.070Z,59.22
2022-12-16T15:50:37.845Z,53.83
2022-12-16T15:58:37.875Z,50.30
2022-12-16T16:06:35.217Z,50.10
2022-12-16T16:14:28.203Z,53.33
2022-12-16T16:22:19.325Z,61.47
2022-12-16T16:30:11.764Z,56.25
2022-12-16T16:38:03.325Z,69.05
2022-12-16T16:45:56.242Z,62.53
2022-12-16T16:53:47.425Z,63.83
2022-12-16T17:01:40.329Z,66.50
2022-12-16T17:09:30.639Z,66.75
2022-12-16T17:17:24.655Z,61.38
2022-12-16T17:25:16.218Z,54.40
2022-12-16T17:33:08.800Z,68.65
2022-12-16T17:41:00.515Z,61.13
2022-12-16T17:48:53.220Z,64.35
2022-12-16T17:56:44.657Z,64.88
2022-12-16T18:04:37.745Z,54.50
2022-12-16T18:12:28.934Z,61.35
2022-12-16T18:20:21.831Z,74.18
2022-12-16T18:28:14.410Z,63.72
2022-12-16T18:36:06.123Z,72.82
2022-12-16T18:44:05.995Z,73.53
2022-12-16T18:51:58.624Z,63.67
2022-12-16T18:59:50.031Z,66.97
2022-12-16T19:07:43.365Z,57.03
2022-12-16T19:15:40.887Z,63.83
2022-12-16T19:23:30.593Z,65.07
2022-12-16T19:31:22.234Z,70.88
2022-12-16T19:39:15.185Z,78.18
2022-12-16T19:47:06.523Z,70.65
2022-12-16T19:54:59.956Z,68.95
2022-12-16T20:02:51.378Z,80.93
2022-12-16T20:10:44.369Z,69.25
2022-12-16T20:18:35.641Z,67.72
2022-12-16T20:26:28.521Z,72.65
2022-12-16T20:34:21.197Z,111.03
2022-12-16T20:42:16.410Z,82.32
2022-12-16T20:50:07.435Z,74.25
2022-12-16T20:58:00.212Z,86.70
2022-12-16T21:06:08.339Z,78.93
2022-12-16T21:14:01.134Z,82.40
2022-12-16T21:21:52.373Z,76.43
2022-12-16T21:29:45.984Z,79.78
2022-12-16T21:37:37.423Z,73.55
2022-12-16T21:45:30.834Z,78.60
2022-12-16T21:53:22.997Z,69.78
2022-12-16T22:01:17.241Z,83.95
2022-12-16T22:09:09.631Z,63.50
2022-12-16T22:17:02.421Z,71.32
2022-12-16T22:24:56.743Z,71.55
2022-12-16T22:40:40.930Z,75.88
2022-12-16T22:48:33.571Z,73.53
2022-12-16T22:56:25.367Z,82.10
2022-12-16T23:04:18.185Z,76.90
2022-12-16T23:12:09.589Z,69.40
2022-12-16T23:20:02.019Z,68.10
2022-12-16T23:27:53.670Z,68.00
2022-12-16T23:35:46.340Z,67.57
2022-12-16T23:43:37.830Z,82.03
2022-12-16T23:51:30.818Z,75.57
2022-12-16T23:59:22.441Z,77.53
